RLSO2: Arkansas River, Ralston, OK

                                SHEF ID:       RLSO2     Arkansas River at Ralston, OK
STATION TYPE:
Regulating: Stage = 16.00, Flow = 78729

PRECIP STAGE STAGE(2) RIV-FLOW AIR-TEMP BAT-LOAD
in ft ft cfs F volt
Ccp-Rev Ccp-Rev Ccp-Rev Ccp-Rev Ccp-Rev Ccp-Rev
(America/Chicago)
02/19 00:00 0.00 4.15 4.19 1273 57.02 12.38
02/19 01:00 0.00 4.16 4.19 1287 58.82 12.37
02/19 02:00 0.00 4.15 4.19 1273 60.08 12.36
02/19 03:00 0.00 4.11 4.17 1220 61.52 12.36
02/19 04:00 0.00 4.10 4.17 1207 61.70 12.35
02/19 05:00 0.00 4.11 4.20 1220 60.44 12.35
02/19 06:00 0.00 4.16 4.18 1287 60.08 12.35
02/19 07:00 0.00 4.12 4.18 1233 59.72 12.34
02/19 08:00 0.00 4.12 4.17 1233 62.42 12.34
02/19 09:00 0.00 4.09 4.15 1194 65.30 12.36
02/19 10:00 0.00 4.10 4.15 1207 67.10 12.45
02/19 11:00 0.00 4.09 4.18 1194 67.64 12.53
02/19 12:00 0.00 4.11 4.16 1220 68.00 12.60
02/19 13:00 0.00 4.10 4.16 1207 68.00 12.63
02/19 14:00 0.00 4.11 4.21 1220 63.68 12.63
02/19 15:00 0.00 4.12 4.28 1233 56.84 12.63
02/19 16:00 0.00 4.23 4.38 1384 53.06 12.57
02/19 17:00 0.00 4.31 4.59 1501 50.72 12.53
02/19 18:00 0.00 4.52 4.83 1837 47.30 12.50
02/19 19:00 0.00 4.79 5.10 2337 44.24 12.46
02/19 20:00 0.00 5.07 5.35 2954 41.90 12.44
02/19 21:00 0.00 5.31 5.58 3581 39.38 12.44
02/19 22:00 0.00 5.52 5.70 4133 37.04 12.42
02/19 23:00 0.00 5.68 5.79 4568 35.96 12.40
Data processed at Fri 20Feb2026 05:21 GMT

NOTICE: If you are parsing this page

Please convert to using our Data API. Starting early 2026 we will be migrating to: https://water.usace.army.mil with modern pages rendered in JavaScript. When this migration completes you will no longer be able to scrape this page! CWMSDataAPI (CDA)

Timeseries IDs (TSIDs)

TSIDs used from left to right in the data table
RALS.Precip-Inc.Total.1Hour.1Hour.Ccp-Rev
RALS.Stage.Inst.1Hour.0.Ccp-Rev
RALS.Stage-Alt.Inst.1Hour.0.Ccp-Rev
RALS.Flow.Inst.1Hour.0.Ccp-Rev
RALS.Temp-Air.Inst.1Hour.0.Ccp-Rev
RALS.Volt-Battery Load.Inst.1Hour.0.Ccp-Rev

                            

All information presented herein is the property of the government of the United States of America and may be revised or deleted at any time without prior notice. Dissemination of this information without the expressed written consent of the Public Affairs Office, Tulsa District U.S. Army Corps of Engineers is strictly prohibited. These data are gathered electronically and, as presented, have NOT undergone any form of quality control. These data are NOT guaranteed to be valid or correct.